Time;durP1;ratioP1;P1;durP2;ratioP2;P2;SDS_P1;SDS_P2;PMS_P1;PMS_P2;Temp;Humidity;BMP_temperature;BMP_pressure;BME280_temperature;BME280_humidity;BME280_pressure;Samples;Min_cycle;Max_cycle;Signal;HPM_P1;HPM_P2
2021/03/06 00:00:28;;;;;;;5.73;4.77;;;;;;;;;;6130066;23;20436;-89
2021/03/06 00:02:54;;;;;;;5.43;4.80;;;;;;;;;;6131695;23;20174;-86
2021/03/06 00:05:21;;;;;;;4.93;4.43;;;;;;;;;;6129592;23;20177;-85
2021/03/06 00:07:48;;;;;;;6.47;4.90;;;;;;;;;;6131948;23;20178;-90
2021/03/06 00:10:15;;;;;;;5.33;4.43;;;;;;;;;;6130227;23;20178;-90
2021/03/06 00:12:42;;;;;;;4.67;4.27;;;;;;;;;;6129630;23;20480;-88
2021/03/06 00:15:10;;;;;;;4.30;3.90;;;;;;;;;;6130236;23;20174;-87
2021/03/06 00:17:36;;;;;;;6.47;4.57;;;;;;;;;;6131217;23;20181;-89
2021/03/06 00:20:03;;;;;;;7.13;4.70;;;;;;;;;;6131561;23;20433;-89
2021/03/06 00:22:29;;;;;;;6.40;4.70;;;;;;;;;;6130456;23;20243;-85
2021/03/06 00:24:55;;;;;;;4.87;4.37;;;;;;;;;;6130953;23;20178;-86
2021/03/06 00:27:22;;;;;;;6.00;4.97;;;;;;;;;;6130449;23;20174;-83
2021/03/06 00:29:48;;;;;;;6.33;4.90;;;;;;;;;;6129877;23;20193;-84
2021/03/06 00:32:15;;;;;;;6.53;5.70;;;;;;;;;;6128374;23;20229;-87
2021/03/06 00:34:41;;;;;;;9.03;6.33;;;;;;;;;;6129855;23;20174;-87
2021/03/06 00:37:07;;;;;;;8.90;6.50;;;;;;;;;;6128355;23;20174;-87
2021/03/06 00:39:33;;;;;;;8.43;6.27;;;;;;;;;;6130047;23;20174;-88
2021/03/06 00:41:59;;;;;;;8.97;6.37;;;;;;;;;;6130077;23;20174;-87
2021/03/06 00:44:27;;;;;;;7.43;6.30;;;;;;;;;;6130481;23;20158;-87
2021/03/06 00:46:53;;;;;;;7.17;6.07;;;;;;;;;;6128420;23;20214;-87
2021/03/06 00:49:19;;;;;;;7.57;6.13;;;;;;;;;;6128769;23;20227;-87
2021/03/06 00:51:45;;;;;;;6.70;5.23;;;;;;;;;;6128555;23;20437;-87
2021/03/06 00:54:11;;;;;;;7.33;5.87;;;;;;;;;;6130307;23;20174;-88
2021/03/06 00:56:38;;;;;;;5.70;5.20;;;;;;;;;;6128474;23;20178;-88
2021/03/06 00:59:04;;;;;;;6.23;5.33;;;;;;;;;;6130283;23;20171;-87
2021/03/06 01:01:31;;;;;;;5.33;4.83;;;;;;;;;;6128572;23;20174;-87
2021/03/06 01:03:57;;;;;;;5.20;4.70;;;;;;;;;;6129884;23;20196;-86
2021/03/06 01:06:23;;;;;;;5.70;4.53;;;;;;;;;;6127939;23;20174;-88
2021/03/06 01:08:49;;;;;;;5.13;4.63;;;;;;;;;;6127865;23;20186;-88
2021/03/06 01:11:15;;;;;;;5.47;4.07;;;;;;;;;;6129899;23;20525;-87
2021/03/06 01:13:42;;;;;;;4.53;4.13;;;;;;;;;;6129564;23;20448;-86
2021/03/06 01:16:08;;;;;;;6.17;4.00;;;;;;;;;;6129576;23;20182;-88
2021/03/06 01:18:35;;;;;;;4.53;4.13;;;;;;;;;;6128332;23;20174;-87
2021/03/06 01:21:01;;;;;;;4.50;3.97;;;;;;;;;;6128092;23;20174;-87
2021/03/06 01:23:27;;;;;;;4.20;3.80;;;;;;;;;;6128751;23;20170;-88
2021/03/06 01:25:53;;;;;;;5.13;4.23;;;;;;;;;;6129547;23;20181;-86
2021/03/06 01:28:20;;;;;;;5.13;3.80;;;;;;;;;;6128299;23;20594;-87
2021/03/06 01:30:46;;;;;;;4.57;4.17;;;;;;;;;;6128283;23;20173;-88
2021/03/06 01:33:12;;;;;;;4.30;3.90;;;;;;;;;;6128708;23;20174;-88
2021/03/06 01:35:39;;;;;;;5.20;3.70;;;;;;;;;;6130583;23;20151;-89
2021/03/06 01:38:05;;;;;;;4.50;4.03;;;;;;;;;;6130077;23;20154;-89
2021/03/06 01:40:32;;;;;;;6.07;4.60;;;;;;;;;;6129115;23;20433;-88
2021/03/06 01:42:59;;;;;;;6.37;4.70;;;;;;;;;;6129510;23;20178;-88
2021/03/06 01:45:25;;;;;;;6.37;4.87;;;;;;;;;;6130546;23;20178;-88
2021/03/06 01:47:51;;;;;;;6.03;5.13;;;;;;;;;;6146927;23;20201;-88
2021/03/06 01:50:20;;;;;;;6.77;5.20;;;;;;;;;;6158605;23;20193;-88
2021/03/06 01:52:47;;;;;;;11.80;5.57;;;;;;;;;;6159261;23;20184;-87
2021/03/06 01:55:13;;;;;;;11.40;5.57;;;;;;;;;;6133241;23;20174;-88
2021/03/06 01:57:40;;;;;;;7.53;5.47;;;;;;;;;;6159748;23;20153;-88
2021/03/06 02:00:07;;;;;;;5.40;4.90;;;;;;;;;;6159127;23;20177;-88
2021/03/06 02:02:33;;;;;;;8.13;5.30;;;;;;;;;;6157990;23;20249;-88
2021/03/06 02:04:59;;;;;;;5.90;5.13;;;;;;;;;;6159101;23;20180;-88
2021/03/06 02:07:25;;;;;;;5.57;5.03;;;;;;;;;;6132860;23;20447;-87
2021/03/06 02:09:52;;;;;;;6.33;5.27;;;;;;;;;;6133149;23;20208;-88
2021/03/06 02:12:22;;;;;;;5.20;4.70;;;;;;;;;;6158552;23;20184;-87
2021/03/06 02:14:55;;;;;;;5.93;5.30;;;;;;;;;;6133379;23;20181;-88
2021/03/06 02:17:23;;;;;;;5.47;4.97;;;;;;;;;;6131788;23;20563;-88
2021/03/06 02:20:09;;;;;;;6.00;5.40;;;;;;;;;;6133141;23;20173;-87
2021/03/06 02:22:46;;;;;;;5.93;5.30;;;;;;;;;;6158492;23;20180;-87
2021/03/06 02:25:19;;;;;;;8.53;5.57;;;;;;;;;;6133144;23;20220;-87
2021/03/06 02:27:50;;;;;;;6.50;5.33;;;;;;;;;;6158130;23;20228;-89
2021/03/06 02:30:17;;;;;;;6.63;5.30;;;;;;;;;;6158319;23;20185;-87
2021/03/06 02:32:45;;;;;;;7.37;5.77;;;;;;;;;;6159091;23;20440;-88
2021/03/06 02:35:13;;;;;;;5.80;5.20;;;;;;;;;;6134975;23;20600;-86
2021/03/06 02:37:40;;;;;;;7.30;5.43;;;;;;;;;;6160952;23;20184;-87
2021/03/06 02:40:09;;;;;;;7.80;5.00;;;;;;;;;;6160992;23;20170;-86
2021/03/06 02:42:36;;;;;;;6.00;5.00;;;;;;;;;;6158741;23;20177;-89
2021/03/06 02:45:03;;;;;;;6.63;5.40;;;;;;;;;;6133537;23;20200;-87
2021/03/06 02:47:30;;;;;;;6.10;5.50;;;;;;;;;;6127829;23;20205;-87
2021/03/06 02:49:57;;;;;;;5.90;4.93;;;;;;;;;;6128051;23;20642;-88
2021/03/06 02:52:24;;;;;;;8.07;5.23;;;;;;;;;;6128654;23;20181;-87
2021/03/06 02:54:50;;;;;;;6.77;4.90;;;;;;;;;;6129747;23;20178;-86
2021/03/06 02:57:24;;;;;;;4.77;4.27;;;;;;;;;;6128925;23;20174;-87
2021/03/06 03:00:00;;;;;;;5.63;5.13;;;;;;;;;;6129892;23;20559;-87
2021/03/06 03:02:30;;;;;;;7.40;4.90;;;;;;;;;;6128482;23;20174;-86
2021/03/06 03:05:07;;;;;;;5.53;4.60;;;;;;;;;;6130518;23;20177;-86
2021/03/06 03:07:35;;;;;;;5.07;4.57;;;;;;;;;;6132183;23;20178;-86
2021/03/06 03:10:03;;;;;;;5.77;4.17;;;;;;;;;;6133772;23;20194;-88
2021/03/06 03:12:32;;;;;;;6.33;5.07;;;;;;;;;;6130905;23;20174;-86
2021/03/06 03:15:02;;;;;;;5.03;4.10;;;;;;;;;;6133379;23;20151;-87
2021/03/06 03:17:31;;;;;;;5.97;4.70;;;;;;;;;;6131159;23;20204;-87
2021/03/06 03:19:59;;;;;;;6.20;4.63;;;;;;;;;;6128686;23;20193;-89
2021/03/06 03:22:29;;;;;;;8.33;4.77;;;;;;;;;;6129276;23;20158;-88
2021/03/06 03:24:56;;;;;;;5.07;4.57;;;;;;;;;;6128744;23;20174;-88
2021/03/06 03:27:23;;;;;;;6.03;4.80;;;;;;;;;;6129934;23;20173;-87
2021/03/06 03:29:49;;;;;;;4.20;3.73;;;;;;;;;;6131462;23;20229;-87
2021/03/06 03:32:16;;;;;;;4.23;3.83;;;;;;;;;;6132086;23;20178;-88
2021/03/06 03:34:42;;;;;;;4.20;3.80;;;;;;;;;;6132454;23;20174;-86
2021/03/06 03:37:10;;;;;;;3.93;3.50;;;;;;;;;;6131187;23;20177;-87
2021/03/06 03:39:37;;;;;;;4.53;3.93;;;;;;;;;;6131569;23;20203;-88
2021/03/06 03:42:05;;;;;;;4.83;4.43;;;;;;;;;;6129956;23;20174;-89
2021/03/06 03:44:32;;;;;;;7.37;5.60;;;;;;;;;;6131700;23;20189;-88
2021/03/06 03:46:58;;;;;;;7.43;6.17;;;;;;;;;;6137971;23;20205;-88
2021/03/06 03:49:25;;;;;;;11.53;6.90;;;;;;;;;;6160251;23;20421;-86
2021/03/06 03:51:53;;;;;;;9.27;6.63;;;;;;;;;;6134730;23;20251;-88
2021/03/06 03:54:19;;;;;;;14.77;7.50;;;;;;;;;;6160506;23;20423;-88
2021/03/06 03:56:48;;;;;;;8.23;7.30;;;;;;;;;;6134457;23;20181;-89
2021/03/06 03:59:14;;;;;;;8.37;7.47;;;;;;;;;;6160663;23;20192;-90
2021/03/06 04:01:41;;;;;;;9.63;8.23;;;;;;;;;;6134951;23;20172;-86
2021/03/06 04:04:07;;;;;;;9.97;7.70;;;;;;;;;;6135599;23;20554;-85
2021/03/06 04:06:34;;;;;;;8.80;7.50;;;;;;;;;;6160972;23;20196;-83
2021/03/06 04:09:00;;;;;;;7.97;7.17;;;;;;;;;;6132845;23;20189;-87
2021/03/06 04:11:26;;;;;;;7.83;6.90;;;;;;;;;;6162288;23;20158;-87
2021/03/06 04:13:53;;;;;;;6.73;6.13;;;;;;;;;;6137167;23;20165;-86
2021/03/06 04:16:19;;;;;;;10.00;5.50;;;;;;;;;;6160514;23;20570;-87
2021/03/06 04:18:45;;;;;;;5.37;4.97;;;;;;;;;;6159895;23;20355;-87
2021/03/06 04:21:11;;;;;;;5.87;4.80;;;;;;;;;;6161878;23;20173;-87
2021/03/06 04:23:38;;;;;;;5.40;4.90;;;;;;;;;;6160539;23;20180;-87
2021/03/06 04:26:04;;;;;;;7.07;4.80;;;;;;;;;;6136740;23;20161;-85
2021/03/06 04:28:30;;;;;;;4.97;4.57;;;;;;;;;;6161198;23;20161;-86
2021/03/06 04:30:57;;;;;;;4.50;4.10;;;;;;;;;;6135744;23;20185;-84
2021/03/06 04:33:23;;;;;;;4.27;3.83;;;;;;;;;;6165144;23;20177;-88
2021/03/06 04:35:49;;;;;;;5.07;3.67;;;;;;;;;;6164618;23;20177;-90
2021/03/06 04:38:16;;;;;;;3.80;3.50;;;;;;;;;;6165913;23;20791;-87
2021/03/06 04:40:42;;;;;;;4.27;3.83;;;;;;;;;;6166109;23;20176;-89
2021/03/06 04:43:08;;;;;;;4.70;4.30;;;;;;;;;;6166718;23;20184;-90
2021/03/06 04:45:34;;;;;;;3.97;3.57;;;;;;;;;;6167024;23;20181;-91
2021/03/06 04:48:01;;;;;;;4.83;3.60;;;;;;;;;;6165936;23;20593;-86
2021/03/06 04:50:27;;;;;;;3.97;3.53;;;;;;;;;;6138349;23;20186;-88
2021/03/06 04:52:53;;;;;;;4.20;3.90;;;;;;;;;;6139387;23;20169;-86
2021/03/06 04:55:19;;;;;;;4.27;3.80;;;;;;;;;;6167786;23;20174;-87
2021/03/06 04:57:45;;;;;;;4.73;3.97;;;;;;;;;;6136027;23;20176;-88
2021/03/06 05:00:12;;;;;;;4.43;3.90;;;;;;;;;;6159499;23;20176;-87
2021/03/06 05:02:38;;;;;;;5.03;3.83;;;;;;;;;;6134685;23;20162;-87
2021/03/06 05:05:06;;;;;;;4.10;3.80;;;;;;;;;;6159652;23;20173;-85
2021/03/06 05:07:32;;;;;;;4.57;3.90;;;;;;;;;;6162377;23;20156;-89
2021/03/06 05:09:58;;;;;;;5.50;3.80;;;;;;;;;;6139725;23;20190;-86
2021/03/06 05:12:25;;;;;;;5.28;4.78;;;;;;;;;;6164372;23;20728;-88
2021/03/06 05:14:51;;;;;;;4.47;4.17;;;;;;;;;;6160110;23;20184;-90
2021/03/06 05:17:17;;;;;;;5.57;4.93;;;;;;;;;;6134132;23;20236;-86
2021/03/06 05:19:43;;;;;;;5.30;4.33;;;;;;;;;;6159766;23;20432;-85
2021/03/06 05:22:10;;;;;;;4.20;3.90;;;;;;;;;;6160458;23;20173;-89
2021/03/06 05:24:36;;;;;;;5.03;4.10;;;;;;;;;;6161535;23;20573;-91
2021/03/06 05:27:02;;;;;;;5.23;4.30;;;;;;;;;;6162143;23;20153;-89
2021/03/06 05:29:29;;;;;;;4.43;4.03;;;;;;;;;;6135584;23;20239;-91
2021/03/06 05:31:55;;;;;;;4.87;4.30;;;;;;;;;;6160928;23;20180;-90
2021/03/06 05:34:21;;;;;;;6.60;4.13;;;;;;;;;;6162154;23;20200;-91
2021/03/06 05:36:47;;;;;;;5.03;4.53;;;;;;;;;;6136442;23;20173;-91
2021/03/06 05:39:14;;;;;;;4.93;4.23;;;;;;;;;;6162803;23;20157;-89
2021/03/06 05:41:41;;;;;;;6.63;4.20;;;;;;;;;;6134813;23;20626;-89
2021/03/06 05:44:07;;;;;;;4.93;4.43;;;;;;;;;;6160956;23;20158;-90
2021/03/06 05:46:33;;;;;;;5.90;4.37;;;;;;;;;;6160621;23;20173;-92
2021/03/06 05:48:59;;;;;;;5.10;4.33;;;;;;;;;;6135378;23;20181;-89
2021/03/06 05:51:26;;;;;;;4.60;4.20;;;;;;;;;;6160203;23;20210;-89
2021/03/06 05:53:53;;;;;;;5.83;4.37;;;;;;;;;;6161765;23;20169;-89
2021/03/06 05:56:20;;;;;;;4.60;4.20;;;;;;;;;;6134769;23;20165;-88
2021/03/06 05:58:47;;;;;;;5.80;4.60;;;;;;;;;;6135660;23;20494;-90
2021/03/06 06:01:14;;;;;;;4.63;4.20;;;;;;;;;;6161969;23;20153;-90
2021/03/06 06:03:40;;;;;;;5.80;4.00;;;;;;;;;;6161770;23;20173;-92
2021/03/06 06:06:07;;;;;;;8.67;4.40;;;;;;;;;;6163184;23;20161;-89
2021/03/06 06:08:34;;;;;;;5.37;4.13;;;;;;;;;;6158153;23;20173;-89
2021/03/06 06:11:00;;;;;;;6.00;4.40;;;;;;;;;;6160508;23;20197;-86
2021/03/06 06:13:27;;;;;;;5.40;4.57;;;;;;;;;;6159423;23;20185;-91
2021/03/06 06:15:54;;;;;;;8.07;6.00;;;;;;;;;;6133344;23;20169;-87
2021/03/06 06:18:20;;;;;;;7.80;6.40;;;;;;;;;;6157665;23;20200;-87
2021/03/06 06:20:46;;;;;;;8.53;6.80;;;;;;;;;;6131406;23;20460;-87
2021/03/06 06:23:13;;;;;;;7.37;6.67;;;;;;;;;;6132643;23;20224;-88
2021/03/06 06:25:40;;;;;;;8.97;6.77;;;;;;;;;;6133141;23;20729;-87
2021/03/06 06:28:06;;;;;;;8.77;7.50;;;;;;;;;;6133295;23;20169;-87
2021/03/06 06:30:34;;;;;;;7.70;6.20;;;;;;;;;;6159095;23;20189;-87
2021/03/06 06:33:00;;;;;;;11.93;7.47;;;;;;;;;;6158098;23;20174;-87
2021/03/06 06:35:26;;;;;;;13.07;8.50;;;;;;;;;;6132551;23;20177;-86
2021/03/06 06:37:56;;;;;;;13.80;9.13;;;;;;;;;;6158465;23;20173;-88
2021/03/06 06:40:23;;;;;;;12.17;8.20;;;;;;;;;;6159282;23;20146;-89
2021/03/06 06:42:49;;;;;;;12.80;9.30;;;;;;;;;;6132524;23;20431;-88
2021/03/06 06:45:16;;;;;;;8.77;6.10;;;;;;;;;;6133861;23;20200;-87
2021/03/06 06:47:44;;;;;;;6.43;4.80;;;;;;;;;;6157926;23;20208;-88
2021/03/06 06:50:11;;;;;;;6.57;5.20;;;;;;;;;;6158803;23;20439;-87
2021/03/06 06:52:38;;;;;;;5.63;4.67;;;;;;;;;;6158038;23;20177;-87
2021/03/06 06:55:05;;;;;;;5.93;4.40;;;;;;;;;;6158608;23;20177;-84
2021/03/06 06:57:31;;;;;;;6.30;4.73;;;;;;;;;;6158421;23;20174;-84
2021/03/06 06:59:58;;;;;;;6.00;5.20;;;;;;;;;;6158571;23;20161;-83
2021/03/06 07:02:25;;;;;;;8.83;5.37;;;;;;;;;;6157356;23;20177;-88
2021/03/06 07:04:54;;;;;;;6.57;5.40;;;;;;;;;;6132128;23;20180;-85
2021/03/06 07:07:21;;;;;;;8.37;5.23;;;;;;;;;;6157315;23;20180;-87
2021/03/06 07:10:01;;;;;;;8.38;5.80;;;;;;;;;;6130774;23;20737;-85
2021/03/06 07:12:29;;;;;;;7.73;5.30;;;;;;;;;;6157704;23;20176;-85
2021/03/06 07:14:56;;;;;;;5.67;5.07;;;;;;;;;;6157992;23;20156;-86
2021/03/06 07:17:22;;;;;;;8.10;4.70;;;;;;;;;;6157727;23;20180;-85
2021/03/06 07:19:48;;;;;;;5.00;4.47;;;;;;;;;;6157890;23;20169;-84
2021/03/06 07:22:15;;;;;;;5.87;5.27;;;;;;;;;;6157239;23;20184;-84
2021/03/06 07:24:41;;;;;;;5.67;4.73;;;;;;;;;;6157754;23;20245;-85
2021/03/06 07:27:08;;;;;;;7.67;4.90;;;;;;;;;;6157782;23;20181;-85
2021/03/06 07:29:34;;;;;;;7.07;4.93;;;;;;;;;;6157257;23;20495;-84
2021/03/06 07:32:01;;;;;;;5.97;4.97;;;;;;;;;;6157933;23;20443;-87
2021/03/06 07:34:28;;;;;;;5.37;4.60;;;;;;;;;;6157952;23;20184;-85
2021/03/06 07:36:56;;;;;;;4.53;3.93;;;;;;;;;;6132738;23;20177;-89
2021/03/06 07:39:24;;;;;;;6.13;3.60;;;;;;;;;;6159366;23;20180;-88
2021/03/06 07:41:53;;;;;;;4.13;3.73;;;;;;;;;;6159742;23;20180;-88
2021/03/06 07:44:22;;;;;;;5.20;3.77;;;;;;;;;;6158516;23;20231;-88
2021/03/06 07:46:49;;;;;;;4.20;3.90;;;;;;;;;;6133209;23;20205;-88
2021/03/06 07:49:16;;;;;;;4.00;3.60;;;;;;;;;;6132454;23;20413;-88
2021/03/06 07:51:43;;;;;;;3.97;3.57;;;;;;;;;;6158599;23;20440;-88
2021/03/06 07:54:10;;;;;;;4.63;4.07;;;;;;;;;;6131443;23;20173;-90
2021/03/06 07:56:38;;;;;;;4.03;3.63;;;;;;;;;;6131897;23;20181;-89
2021/03/06 07:59:04;;;;;;;5.30;4.20;;;;;;;;;;6132409;23;20169;-88
2021/03/06 08:01:31;;;;;;;5.00;4.50;;;;;;;;;;6158208;23;20173;-88
2021/03/06 08:03:57;;;;;;;8.13;4.80;;;;;;;;;;6131534;23;20227;-88
2021/03/06 08:06:24;;;;;;;5.77;5.00;;;;;;;;;;6132045;23;20539;-88
2021/03/06 08:09:00;;;;;;;4.40;4.07;;;;;;;;;;6132123;23;20483;-88
2021/03/06 08:11:35;;;;;;;7.07;4.77;;;;;;;;;;6132348;23;20833;-88
2021/03/06 08:14:05;;;;;;;5.50;4.20;;;;;;;;;;6133300;23;20172;-87
2021/03/06 08:16:40;;;;;;;4.53;4.10;;;;;;;;;;6134591;23;20244;-88
2021/03/06 08:19:22;;;;;;;4.83;3.77;;;;;;;;;;6133239;23;20269;-89
2021/03/06 08:21:49;;;;;;;5.67;3.60;;;;;;;;;;6134021;23;20173;-88
2021/03/06 08:24:26;;;;;;;6.10;3.47;;;;;;;;;;6134374;23;20169;-88
2021/03/06 08:27:26;;;;;;;3.53;3.23;;;;;;;;;;6159895;23;20173;-88
2021/03/06 08:29:54;;;;;;;4.10;3.53;;;;;;;;;;5989010;23;20659;-89
2021/03/06 08:32:34;;;;;;;5.80;3.53;;;;;;;;;;5989539;23;20479;-89
2021/03/06 08:35:17;;;;;;;5.33;3.60;;;;;;;;;;5966098;23;20591;-89
2021/03/06 08:37:43;;;;;;;4.93;3.33;;;;;;;;;;5989521;23;20181;-90
2021/03/06 08:40:11;;;;;;;8.17;3.93;;;;;;;;;;6012590;23;20173;-89
2021/03/06 08:42:38;;;;;;;3.23;3.03;;;;;;;;;;6013749;23;20166;-90
2021/03/06 08:45:07;;;;;;;3.57;2.83;;;;;;;;;;6011683;23;20177;-89
2021/03/06 08:47:35;;;;;;;2.60;2.40;;;;;;;;;;5989521;23;20205;-88
2021/03/06 08:50:02;;;;;;;4.07;2.83;;;;;;;;;;5988710;23;20273;-87
2021/03/06 08:52:29;;;;;;;3.07;2.40;;;;;;;;;;6013369;23;20161;-89
2021/03/06 08:54:55;;;;;;;2.90;2.57;;;;;;;;;;6012338;23;20182;-89
2021/03/06 08:57:22;;;;;;;2.60;2.10;;;;;;;;;;6012525;23;20184;-87
2021/03/06 08:59:49;;;;;;;2.70;2.43;;;;;;;;;;6025327;23;20178;-88
2021/03/06 09:02:17;;;;;;;2.20;2.00;;;;;;;;;;6128371;23;20558;-89
2021/03/06 09:04:43;;;;;;;2.43;2.23;;;;;;;;;;6129689;23;20181;-88
2021/03/06 09:07:10;;;;;;;2.57;2.23;;;;;;;;;;6129874;23;20178;-89
2021/03/06 09:09:36;;;;;;;2.63;2.43;;;;;;;;;;6128709;23;20162;-90
2021/03/06 09:12:02;;;;;;;2.33;2.13;;;;;;;;;;6128122;23;20452;-90
2021/03/06 09:14:29;;;;;;;2.60;2.40;;;;;;;;;;6128958;23;20162;-89
2021/03/06 09:16:55;;;;;;;4.13;2.20;;;;;;;;;;6130216;23;20185;-90
2021/03/06 09:19:23;;;;;;;3.10;2.37;;;;;;;;;;6130840;23;20151;-89
2021/03/06 09:21:59;;;;;;;2.07;1.97;;;;;;;;;;6130402;23;20170;-88
2021/03/06 09:24:25;;;;;;;3.10;2.30;;;;;;;;;;6130718;23;20173;-88
2021/03/06 09:26:52;;;;;;;3.10;2.20;;;;;;;;;;6131219;23;20183;-89
2021/03/06 09:29:18;;;;;;;2.23;2.13;;;;;;;;;;6130509;23;20174;-88
2021/03/06 09:31:48;;;;;;;2.37;2.20;;;;;;;;;;6128696;23;20422;-90
2021/03/06 09:34:14;;;;;;;2.27;2.17;;;;;;;;;;6130002;23;20185;-86
2021/03/06 09:36:41;;;;;;;2.30;2.10;;;;;;;;;;6129632;23;20200;-88
2021/03/06 09:39:09;;;;;;;2.47;2.37;;;;;;;;;;6129956;23;20162;-88
2021/03/06 09:41:38;;;;;;;2.93;2.20;;;;;;;;;;6128654;23;20170;-84
2021/03/06 09:44:05;;;;;;;2.60;2.40;;;;;;;;;;6127653;23;20178;-89
2021/03/06 09:46:33;;;;;;;4.03;2.30;;;;;;;;;;6130482;23;20174;-89
2021/03/06 09:49:00;;;;;;;3.60;2.10;;;;;;;;;;6159562;23;20252;-87
2021/03/06 09:51:37;;;;;;;2.33;2.13;;;;;;;;;;6159434;23;20199;-91
2021/03/06 09:54:04;;;;;;;2.27;1.90;;;;;;;;;;6159311;23;20173;-91
2021/03/06 09:56:30;;;;;;;3.23;1.63;;;;;;;;;;6159149;23;20184;-89
2021/03/06 09:58:57;;;;;;;1.60;1.50;;;;;;;;;;6159547;23;20543;-90
2021/03/06 10:01:23;;;;;;;1.50;1.40;;;;;;;;;;6158460;23;20177;-90
2021/03/06 10:03:50;;;;;;;1.97;1.70;;;;;;;;;;6159204;23;20200;-89
2021/03/06 10:06:18;;;;;;;1.97;1.80;;;;;;;;;;6159664;23;20181;-90
2021/03/06 10:08:45;;;;;;;2.20;1.73;;;;;;;;;;6134181;23;20173;-91
2021/03/06 10:11:13;;;;;;;2.70;1.50;;;;;;;;;;6159880;23;20590;-87
2021/03/06 10:13:40;;;;;;;1.80;1.70;;;;;;;;;;6158953;23;20154;-87
2021/03/06 10:16:06;;;;;;;1.83;1.73;;;;;;;;;;6158511;23;20176;-87
2021/03/06 10:18:36;;;;;;;1.67;1.60;;;;;;;;;;6132644;23;20180;-85
2021/03/06 10:21:08;;;;;;;2.00;1.77;;;;;;;;;;6158265;23;20177;-85
2021/03/06 10:23:35;;;;;;;1.50;1.40;;;;;;;;;;6130778;23;20177;-84
2021/03/06 10:26:18;;;;;;;2.03;1.43;;;;;;;;;;6132822;23;20180;-88
2021/03/06 10:28:45;;;;;;;1.67;1.57;;;;;;;;;;6159229;23;20184;-90
2021/03/06 10:31:30;;;;;;;1.80;1.70;;;;;;;;;;6158276;23;20189;-83
2021/03/06 10:33:57;;;;;;;2.03;1.73;;;;;;;;;;6156319;23;20239;-84
2021/03/06 10:36:23;;;;;;;3.40;1.60;;;;;;;;;;6131594;23;20744;-90
2021/03/06 10:38:49;;;;;;;1.50;1.40;;;;;;;;;;6133647;23;20168;-92
2021/03/06 10:41:16;;;;;;;1.87;1.70;;;;;;;;;;6142157;23;20431;-90
2021/03/06 10:43:44;;;;;;;1.80;1.63;;;;;;;;;;6159373;23;20150;-90
2021/03/06 10:46:11;;;;;;;1.70;1.60;;;;;;;;;;6160207;23;20177;-87
2021/03/06 10:48:37;;;;;;;1.93;1.60;;;;;;;;;;6159443;23;20209;-90
2021/03/06 10:51:04;;;;;;;1.63;1.53;;;;;;;;;;6133336;23;20632;-89
2021/03/06 10:53:31;;;;;;;1.63;1.53;;;;;;;;;;6134575;23;20161;-93
2021/03/06 10:55:57;;;;;;;1.83;1.73;;;;;;;;;;6160664;23;20158;-90
2021/03/06 10:58:38;;;;;;;1.40;1.40;;;;;;;;;;6132892;23;20224;-89
2021/03/06 11:01:05;;;;;;;1.83;1.60;;;;;;;;;;6157840;23;20176;-87
2021/03/06 11:03:38;;;;;;;1.53;1.53;;;;;;;;;;6159028;23;20157;-86
2021/03/06 11:06:05;;;;;;;1.63;1.53;;;;;;;;;;6131949;23;20165;-86
2021/03/06 11:08:31;;;;;;;1.60;1.50;;;;;;;;;;6158097;23;20222;-80
2021/03/06 11:10:57;;;;;;;23.13;8.67;;;;;;;;;;6157204;23;20189;-82
2021/03/06 11:13:23;;;;;;;2.00;1.90;;;;;;;;;;6157395;23;20173;-80
2021/03/06 11:15:50;;;;;;;4.30;2.57;;;;;;;;;;6157349;23;20173;-81
2021/03/06 11:18:17;;;;;;;1.83;1.73;;;;;;;;;;6157311;23;20188;-80
2021/03/06 11:20:44;;;;;;;1.73;1.70;;;;;;;;;;6157417;23;20169;-81
2021/03/06 11:23:10;;;;;;;1.70;1.60;;;;;;;;;;6157308;23;20244;-80
2021/03/06 11:25:36;;;;;;;1.73;1.63;;;;;;;;;;6157533;23;20188;-80
2021/03/06 11:28:03;;;;;;;1.80;1.70;;;;;;;;;;6157617;23;20180;-80
2021/03/06 11:30:30;;;;;;;1.93;1.83;;;;;;;;;;6157327;23;20196;-80
2021/03/06 11:32:56;;;;;;;1.60;1.50;;;;;;;;;;6157487;23;20173;-80
2021/03/06 11:35:24;;;;;;;2.43;1.93;;;;;;;;;;6157645;23;20605;-81
2021/03/06 11:37:51;;;;;;;1.73;1.60;;;;;;;;;;6157751;23;20177;-80
2021/03/06 11:40:18;;;;;;;1.97;1.60;;;;;;;;;;6157422;23;20184;-84
2021/03/06 11:42:44;;;;;;;1.50;1.50;;;;;;;;;;6131897;23;20558;-84
2021/03/06 11:45:11;;;;;;;1.50;1.40;;;;;;;;;;6157396;23;20173;-83
2021/03/06 11:47:38;;;;;;;1.50;1.50;;;;;;;;;;6125980;23;20476;-83
2021/03/06 11:50:04;;;;;;;1.43;1.33;;;;;;;;;;6128442;23;20199;-83
2021/03/06 11:52:31;;;;;;;1.80;1.70;;;;;;;;;;6129586;23;20200;-84
2021/03/06 11:54:58;;;;;;;1.40;1.40;;;;;;;;;;6130047;23;20630;-83
2021/03/06 11:57:24;;;;;;;2.07;1.77;;;;;;;;;;6129432;23;20181;-84
2021/03/06 11:59:50;;;;;;;2.20;1.70;;;;;;;;;;6128681;23;20174;-84
2021/03/06 12:02:16;;;;;;;1.80;1.70;;;;;;;;;;6129749;23;20424;-84
2021/03/06 12:04:42;;;;;;;1.80;1.70;;;;;;;;;;6130031;23;20174;-85
2021/03/06 12:07:08;;;;;;;1.50;1.40;;;;;;;;;;6129312;23;20186;-82
2021/03/06 12:09:35;;;;;;;1.73;1.63;;;;;;;;;;6130177;23;20181;-83
2021/03/06 12:12:02;;;;;;;1.70;1.60;;;;;;;;;;6129417;23;20190;-83
2021/03/06 12:14:28;;;;;;;2.27;1.60;;;;;;;;;;6129871;23;20190;-83
2021/03/06 12:16:54;;;;;;;1.50;1.40;;;;;;;;;;6129202;23;20174;-82
2021/03/06 12:19:20;;;;;;;1.67;1.57;;;;;;;;;;6129832;23;20181;-83
2021/03/06 12:21:46;;;;;;;2.60;1.80;;;;;;;;;;6128536;23;20170;-82
2021/03/06 12:24:12;;;;;;;3.30;1.53;;;;;;;;;;6130073;23;20184;-88
2021/03/06 12:26:39;;;;;;;1.70;1.60;;;;;;;;;;6128819;23;20730;-88
2021/03/06 12:29:05;;;;;;;2.17;1.67;;;;;;;;;;6129888;23;20181;-85
2021/03/06 12:31:32;;;;;;;2.20;2.03;;;;;;;;;;6129228;23;20193;-85
2021/03/06 12:33:58;;;;;;;2.10;1.90;;;;;;;;;;6130782;23;20178;-85
2021/03/06 12:36:24;;;;;;;1.83;1.67;;;;;;;;;;6129286;23;20444;-86
2021/03/06 12:38:50;;;;;;;2.30;2.10;;;;;;;;;;6128928;23;20174;-86
2021/03/06 12:41:17;;;;;;;1.90;1.80;;;;;;;;;;6129330;23;20436;-85
2021/03/06 12:43:44;;;;;;;2.57;1.30;;;;;;;;;;6128611;23;20174;-85
2021/03/06 12:46:10;;;;;;;2.37;1.83;;;;;;;;;;6129306;23;20178;-85
2021/03/06 12:48:36;;;;;;;2.90;1.83;;;;;;;;;;6155122;23;20208;-84
2021/03/06 12:51:03;;;;;;;1.73;1.63;;;;;;;;;;6157543;23;20185;-84
2021/03/06 12:53:29;;;;;;;1.70;1.60;;;;;;;;;;6133029;23;20569;-85
2021/03/06 12:55:55;;;;;;;1.70;1.60;;;;;;;;;;6158376;23;20180;-85
2021/03/06 12:58:21;;;;;;;1.70;1.60;;;;;;;;;;6159006;23;20178;-85
2021/03/06 13:00:48;;;;;;;1.70;1.60;;;;;;;;;;6158624;23;20520;-82
2021/03/06 13:03:14;;;;;;;2.30;1.98;;;;;;;;;;6158544;23;20791;-86
2021/03/06 13:05:40;;;;;;;1.60;1.50;;;;;;;;;;6158913;23;20177;-83
2021/03/06 13:08:07;;;;;;;1.43;1.43;;;;;;;;;;6132901;23;20173;-81
2021/03/06 13:10:33;;;;;;;1.70;1.50;;;;;;;;;;6158316;23;20180;-84
2021/03/06 13:12:59;;;;;;;1.77;1.67;;;;;;;;;;6132718;23;20177;-81
2021/03/06 13:15:25;;;;;;;1.77;1.50;;;;;;;;;;6158441;23;20184;-82
2021/03/06 13:17:52;;;;;;;1.90;1.80;;;;;;;;;;6158605;23;20173;-87
2021/03/06 13:20:18;;;;;;;1.90;1.80;;;;;;;;;;6133033;23;20200;-85
2021/03/06 13:22:44;;;;;;;9.47;1.87;;;;;;;;;;6132842;23;20173;-85
2021/03/06 13:25:11;;;;;;;1.90;1.80;;;;;;;;;;6158593;23;20173;-87
2021/03/06 13:27:37;;;;;;;1.90;1.80;;;;;;;;;;6132366;23;20764;-86
2021/03/06 13:30:05;;;;;;;1.80;1.70;;;;;;;;;;6133524;23;20172;-84
2021/03/06 13:32:31;;;;;;;1.60;1.60;;;;;;;;;;6158351;23;20189;-86
2021/03/06 13:34:58;;;;;;;2.20;1.73;;;;;;;;;;6133756;23;20165;-86
2021/03/06 13:37:24;;;;;;;1.70;1.60;;;;;;;;;;6158787;23;20180;-85
2021/03/06 13:39:50;;;;;;;1.70;1.50;;;;;;;;;;6133102;23;20169;-82
2021/03/06 13:42:16;;;;;;;1.83;1.60;;;;;;;;;;6158839;23;20170;-89
2021/03/06 13:44:43;;;;;;;1.60;1.60;;;;;;;;;;6159632;23;20181;-87
2021/03/06 13:47:09;;;;;;;1.80;1.70;;;;;;;;;;6128165;23;20221;-86
2021/03/06 13:49:35;;;;;;;1.63;1.53;;;;;;;;;;6130061;23;20563;-85
2021/03/06 13:52:02;;;;;;;1.97;1.87;;;;;;;;;;6129663;23;20239;-85
2021/03/06 13:54:28;;;;;;;1.70;1.60;;;;;;;;;;6130349;23;20178;-91
2021/03/06 13:56:54;;;;;;;2.10;1.90;;;;;;;;;;6130554;23;20181;-90
2021/03/06 13:59:20;;;;;;;1.80;1.70;;;;;;;;;;6128273;23;20173;-89
2021/03/06 14:01:46;;;;;;;2.20;2.10;;;;;;;;;;6128191;23;20174;-82
2021/03/06 14:04:12;;;;;;;1.93;1.83;;;;;;;;;;6128794;23;20182;-84
2021/03/06 14:06:38;;;;;;;2.13;1.93;;;;;;;;;;6128896;23;20182;-84
2021/03/06 14:09:06;;;;;;;1.87;1.77;;;;;;;;;;6128830;23;20439;-85
2021/03/06 14:11:33;;;;;;;2.03;1.92;;;;;;;;;;6128670;23;20229;-88
2021/03/06 14:13:59;;;;;;;1.83;1.73;;;;;;;;;;6128724;23;20170;-86
2021/03/06 14:16:25;;;;;;;2.15;2.03;;;;;;;;;;6130374;23;20158;-85
2021/03/06 14:18:51;;;;;;;2.33;2.13;;;;;;;;;;6129274;23;20174;-84
2021/03/06 14:21:17;;;;;;;2.22;2.13;;;;;;;;;;6128875;23;20177;-85
2021/03/06 14:23:43;;;;;;;1.95;1.75;;;;;;;;;;6129314;23;20185;-84
2021/03/06 14:26:11;;;;;;;1.80;1.80;;;;;;;;;;6127454;23;20181;-87
2021/03/06 14:28:37;;;;;;;2.38;1.88;;;;;;;;;;6128872;23;20151;-85
2021/03/06 14:31:03;;;;;;;2.58;1.77;;;;;;;;;;6128618;23;20194;-84
2021/03/06 14:33:29;;;;;;;2.15;2.00;;;;;;;;;;6128564;23;20467;-84
2021/03/06 14:35:56;;;;;;;1.88;1.83;;;;;;;;;;6128709;23;20433;-84
2021/03/06 14:38:22;;;;;;;2.10;2.00;;;;;;;;;;6125318;23;20548;-84
2021/03/06 14:40:48;;;;;;;2.03;1.92;;;;;;;;;;6127831;23;20174;-84
2021/03/06 14:43:15;;;;;;;2.40;2.20;;;;;;;;;;6127707;23;20185;-84